Time;durP1;ratioP1;P1;durP2;ratioP2;P2;SDS_P1;SDS_P2;PMS_P1;PMS_P2;Temp;Humidity;BMP_temperature;BMP_pressure;BME280_temperature;BME280_humidity;BME280_pressure;Samples;Min_cycle;Max_cycle;Signal;HPM_P1;HPM_P2
2021/04/21 05:42:55;;;;;;;13.30;8.90;;;;;;;6.19;79.55;97622.17;1818309;78;20900;-64
2021/04/21 05:46:08;;;;;;;11.30;8.55;;;;;;;6.31;79.29;97623.22;1818119;78;21322;-64
2021/04/21 05:49:04;;;;;;;10.45;8.53;;;;;;;6.44;78.91;97625.30;1817426;79;21009;-65
2021/04/21 05:51:54;;;;;;;11.30;9.07;;;;;;;6.59;78.23;97621.25;1818414;78;21338;-65
2021/04/21 05:54:51;;;;;;;14.13;10.30;;;;;;;6.75;77.88;97617.97;1818052;79;21218;-62
2021/04/21 05:58:15;;;;;;;11.43;9.45;;;;;;;6.85;77.55;97621.35;1818017;78;21006;-63
2021/04/21 06:01:21;;;;;;;9.40;7.90;;;;;;;6.97;77.09;97633.56;1822825;77;21374;-66
2021/04/21 06:03:56;;;;;;;9.00;7.83;;;;;;;7.05;76.49;97624.97;1843972;77;20982;-63
2021/04/21 06:06:25;;;;;;;9.83;8.83;;;;;;;7.15;75.99;97636.38;1832599;77;20966;-64
2021/04/21 06:08:54;;;;;;;11.25;8.85;;;;;;;7.23;75.81;97640.32;1800335;79;20942;-66
2021/04/21 06:11:27;;;;;;;10.78;9.63;;;;;;;7.31;74.68;97637.05;1789440;79;21045;-64
2021/04/21 06:13:58;;;;;;;10.30;8.13;;;;;;;7.37;74.93;97629.30;1812975;79;21194;-67
2021/04/21 06:16:27;;;;;;;10.38;8.85;;;;;;;7.44;74.30;97640.44;1813283;79;21190;-66
2021/04/21 06:19:07;;;;;;;10.72;8.63;;;;;;;7.52;74.03;97637.16;1746263;82;21229;-65
2021/04/21 06:21:39;;;;;;;11.45;9.18;;;;;;;7.63;74.07;97639.99;1769316;81;21212;-66
2021/04/21 06:24:26;;;;;;;10.35;8.63;;;;;;;7.74;74.14;97636.72;1747003;82;21034;-64
2021/04/21 06:27:10;;;;;;;9.83;8.23;;;;;;;7.84;73.90;97640.63;1739292;81;21484;-66
2021/04/21 06:29:40;;;;;;;11.90;10.00;;;;;;;7.89;73.89;97633.36;1769894;81;21237;-65
2021/04/21 06:32:13;;;;;;;10.85;9.53;;;;;;;7.92;73.68;97648.00;1746846;81;21537;-64
2021/04/21 06:34:42;;;;;;;12.15;10.25;;;;;;;7.91;73.80;97644.57;1758806;81;21195;-67
2021/04/21 06:37:10;;;;;;;11.20;9.95;;;;;;;7.93;73.83;97645.08;1750088;81;21140;-65
2021/04/21 06:39:39;;;;;;;12.28;10.05;;;;;;;7.95;73.63;97637.59;1737803;82;21372;-67
2021/04/21 06:42:08;;;;;;;15.48;10.28;;;;;;;7.99;73.81;97641.80;1706944;84;21018;-65
2021/04/21 06:44:47;;;;;;;12.55;10.18;;;;;;;8.05;73.70;97642.03;1697148;83;20986;-62
2021/04/21 06:47:27;;;;;;;12.13;8.93;;;;;;;8.15;73.78;97645.91;1717349;83;21073;-67
2021/04/21 06:50:05;;;;;;;10.00;8.63;;;;;;;8.30;73.34;97642.32;1730338;81;21033;-65
2021/04/21 06:52:38;;;;;;;9.25;8.35;;;;;;;8.48;73.31;97642.94;1788119;80;22232;-66
2021/04/21 06:55:17;;;;;;;10.88;8.60;;;;;;;8.62;72.85;97638.50;1787949;80;20991;-65
2021/04/21 06:57:45;;;;;;;9.90;8.83;;;;;;;8.75;72.50;97639.13;1788421;80;20979;-66
2021/04/21 07:00:17;;;;;;;9.88;8.88;;;;;;;8.90;71.92;97636.27;1788064;80;20920;-67
2021/04/21 07:02:48;;;;;;;9.98;8.98;;;;;;;9.01;72.21;97639.05;1791132;78;21018;-63
2021/04/21 07:05:39;;;;;;;9.18;8.25;;;;;;;9.14;71.19;97638.31;1795071;79;21455;-65
2021/04/21 07:08:16;;;;;;;10.18;8.10;;;;;;;9.25;71.39;97630.42;1780362;79;21002;-66
2021/04/21 07:10:49;;;;;;;9.83;8.33;;;;;;;9.37;70.32;97632.09;1774474;80;20904;-64
2021/04/21 07:13:24;;;;;;;14.10;9.35;;;;;;;9.43;70.03;97641.63;1774500;80;21529;-67
2021/04/21 07:15:58;;;;;;;10.65;8.63;;;;;;;9.46;70.20;97639.72;1778017;78;20963;-64
2021/04/21 07:18:38;;;;;;;12.35;9.63;;;;;;;9.49;70.57;97643.13;1793837;79;21257;-64
2021/04/21 07:21:09;;;;;;;8.50;7.58;;;;;;;9.59;70.25;97643.52;1790802;79;21558;-67
2021/04/21 07:23:38;;;;;;;11.15;7.87;;;;;;;9.71;69.46;97644.39;1741427;79;21062;-65
2021/04/21 07:26:11;;;;;;;10.08;8.98;;;;;;;9.80;69.21;97642.66;1790209;79;21141;-64
2021/04/21 07:28:49;;;;;;;8.78;7.60;;;;;;;9.93;69.25;97644.56;1711759;82;21192;-65
2021/04/21 07:31:19;;;;;;;10.80;8.90;;;;;;;10.09;68.51;97645.87;1730642;82;21374;-67
2021/04/21 07:36:30;;;;;;;9.50;8.23;;;;;;;10.27;66.93;97656.54;1830941;77;20926;-67
2021/04/21 07:39:08;;;;;;;9.10;7.40;;;;;;;10.32;67.01;97658.90;1780732;78;21453;-66
2021/04/21 07:42:06;;;;;;;8.85;7.78;;;;;;;10.41;66.58;97647.74;1784384;78;20970;-68
2021/04/21 07:44:55;;;;;;;10.10;8.48;;;;;;;10.57;66.05;97644.48;1813970;79;22271;-66
2021/04/21 07:47:25;;;;;;;8.03;7.22;;;;;;;10.73;65.10;97652.45;1813654;79;23035;-66
2021/04/21 07:50:01;;;;;;;9.43;8.13;;;;;;;10.74;64.93;97652.68;1813436;79;20949;-64
2021/04/21 07:52:32;;;;;;;9.05;7.92;;;;;;;10.73;64.62;97648.44;1813561;79;21568;-63
2021/04/21 07:55:16;;;;;;;9.25;8.20;;;;;;;10.75;64.57;97660.98;1812852;79;21238;-64
2021/04/21 07:57:58;;;;;;;9.88;8.18;;;;;;;10.79;64.30;97658.48;1809711;79;21364;-67
2021/04/21 08:00:30;;;;;;;10.20;8.10;;;;;;;10.82;63.87;97665.39;1813609;79;21074;-65
2021/04/21 08:03:00;;;;;;;10.68;8.85;;;;;;;10.83;64.42;97654.90;1813772;79;21210;-64
2021/04/21 08:05:31;;;;;;;11.43;8.60;;;;;;;10.97;64.72;97657.59;1762691;79;21210;-66
2021/04/21 08:08:04;;;;;;;10.32;8.98;;;;;;;11.10;65.37;97653.27;1816822;77;21537;-65
2021/04/21 08:10:36;;;;;;;10.75;9.05;;;;;;;11.24;64.41;97668.23;1847578;77;21454;-63
2021/04/21 08:13:08;;;;;;;13.35;10.00;;;;;;;11.36;63.79;97667.16;1803166;77;21747;-65
2021/04/21 08:15:41;;;;;;;11.85;9.43;;;;;;;11.43;63.76;97655.47;1783931;79;21621;-68
2021/04/21 08:18:11;;;;;;;13.90;9.40;;;;;;;11.56;64.07;97657.88;1812394;79;21221;-64
2021/04/21 08:20:43;;;;;;;14.53;9.75;;;;;;;11.70;63.15;97663.20;1813004;79;21235;-67
2021/04/21 08:23:19;;;;;;;10.58;9.48;;;;;;;11.75;61.26;97664.42;1809967;79;21197;-65
2021/04/21 08:25:49;;;;;;;12.67;8.73;;;;;;;11.78;61.81;97660.56;1813108;79;21176;-64
2021/04/21 08:28:21;;;;;;;16.07;9.30;;;;;;;11.83;60.58;97648.92;1812645;79;21585;-67
2021/04/21 08:30:59;;;;;;;9.43;8.28;;;;;;;11.90;61.33;97668.06;1812634;79;21192;-66
2021/04/21 08:33:28;;;;;;;14.30;9.18;;;;;;;11.96;60.38;97658.27;1813187;79;21435;-64
2021/04/21 08:35:58;;;;;;;13.28;8.63;;;;;;;11.98;60.77;97670.02;1815180;79;22227;-67
2021/04/21 08:38:28;;;;;;;10.53;8.05;;;;;;;11.99;59.11;97668.36;1812566;79;21157;-66
2021/04/21 08:40:56;;;;;;;12.93;8.40;;;;;;;11.95;59.05;97658.55;1812741;78;21169;-64
2021/04/21 08:43:26;;;;;;;8.35;7.40;;;;;;;11.98;59.57;97660.09;1803921;78;20930;-64
2021/04/21 08:45:55;;;;;;;9.30;6.47;;;;;;;12.09;58.60;97658.72;1793712;80;21018;-66
2021/04/21 08:48:24;;;;;;;8.83;6.75;;;;;;;12.19;58.21;97659.81;1793698;80;21345;-63
2021/04/21 08:50:53;;;;;;;9.88;7.12;;;;;;;12.27;57.26;97660.96;1793705;80;20945;-64
2021/04/21 08:53:21;;;;;;;8.50;6.90;;;;;;;12.31;57.21;97657.34;1793679;80;20953;-67
2021/04/21 08:55:50;;;;;;;7.05;6.35;;;;;;;12.35;57.47;97654.27;1793626;79;21013;-65
2021/04/21 08:58:22;;;;;;;7.47;6.37;;;;;;;12.44;57.07;97658.33;1793656;80;21021;-63
2021/04/21 09:00:50;;;;;;;7.20;6.50;;;;;;;12.48;56.25;97651.80;1793713;80;21351;-66
2021/04/21 09:03:19;;;;;;;8.73;6.70;;;;;;;12.53;55.31;97660.50;1763961;80;21037;-66
2021/04/21 09:05:47;;;;;;;5.97;5.47;;;;;;;12.60;55.75;97666.21;1793663;79;20989;-65
2021/04/21 09:08:19;;;;;;;6.12;5.50;;;;;;;12.64;53.62;97652.97;1793685;79;21064;-66
2021/04/21 09:10:48;;;;;;;6.62;5.35;;;;;;;12.72;53.56;97654.88;1764319;80;21057;-64
2021/04/21 09:13:17;;;;;;;8.40;6.87;;;;;;;12.81;52.89;97653.02;1783613;80;21179;-66
2021/04/21 09:15:46;;;;;;;8.58;6.42;;;;;;;12.89;52.75;97653.58;1765253;80;20972;-66
2021/04/21 09:18:27;;;;;;;12.73;5.87;;;;;;;12.96;54.25;97649.88;1762282;80;21089;-64
2021/04/21 09:20:56;;;;;;;8.43;6.20;;;;;;;13.10;53.55;97646.53;1762484;81;20949;-67
2021/04/21 09:23:25;;;;;;;6.83;6.12;;;;;;;13.26;51.60;97649.00;1762391;81;20953;-66
2021/04/21 09:25:54;;;;;;;7.30;5.78;;;;;;;13.33;52.46;97651.25;1733394;81;21361;-64
2021/04/21 09:28:24;;;;;;;7.00;6.17;;;;;;;13.40;53.50;97635.42;1762270;81;20926;-66
2021/04/21 09:30:57;;;;;;;8.25;6.30;;;;;;;13.49;51.22;97641.05;1762422;81;21088;-64
2021/04/21 09:33:29;;;;;;;7.72;6.35;;;;;;;13.56;51.30;97640.02;1762326;81;20950;-64
2021/04/21 09:35:58;;;;;;;13.28;6.05;;;;;;;13.63;50.74;97633.59;1762330;81;21548;-67
2021/04/21 09:38:28;;;;;;;6.70;5.53;;;;;;;13.66;51.57;97645.05;1762310;81;21138;-63
2021/04/21 09:41:04;;;;;;;7.28;5.55;;;;;;;13.68;49.77;97641.48;1762364;81;21587;-65
2021/04/21 09:43:36;;;;;;;6.50;5.78;;;;;;;13.63;48.80;97649.74;1770353;80;21486;-64
2021/04/21 09:46:16;;;;;;;6.75;6.05;;;;;;;13.56;48.73;97646.73;1781795;80;20963;-66
2021/04/21 09:48:47;;;;;;;7.20;6.28;;;;;;;13.49;49.62;97649.66;1781728;80;21621;-64
2021/04/21 09:51:23;;;;;;;7.12;6.42;;;;;;;13.48;49.02;97642.14;1781739;80;21260;-66
2021/04/21 09:53:52;;;;;;;10.23;6.75;;;;;;;13.42;49.83;97636.69;1810856;79;21574;-66
2021/04/21 09:56:24;;;;;;;6.25;5.65;;;;;;;13.41;49.62;97632.41;1813535;79;21110;-65
2021/04/21 09:58:59;;;;;;;9.05;7.05;;;;;;;13.43;50.04;97636.12;1813433;79;21523;-67
2021/04/21 10:01:34;;;;;;;6.85;6.10;;;;;;;13.47;48.55;97632.47;1813522;79;21117;-64
2021/04/21 10:04:19;;;;;;;8.85;6.83;;;;;;;13.46;49.34;97632.80;1813755;79;21350;-63
2021/04/21 10:06:55;;;;;;;7.03;5.58;;;;;;;13.49;49.17;97626.25;1815359;79;21602;-67
2021/04/21 10:09:38;;;;;;;7.80;6.62;;;;;;;13.54;49.44;97626.06;1813710;79;20901;-66
2021/04/21 10:12:20;;;;;;;7.58;6.58;;;;;;;13.63;48.26;97632.25;1813736;79;21193;-67
2021/04/21 10:17:45;;;;;;;6.50;5.90;;;;;;;13.69;48.50;97625.58;1878169;76;22660;-66
2021/04/21 10:20:17;;;;;;;7.42;5.33;;;;;;;13.63;48.23;97626.88;1852782;77;20899;-68
2021/04/21 10:22:46;;;;;;;9.40;6.37;;;;;;;13.64;48.18;97619.02;1783081;80;21205;-66
2021/04/21 10:25:16;;;;;;;8.05;5.37;;;;;;;13.81;48.35;97618.75;1815101;79;20935;-67
2021/04/21 10:27:44;;;;;;;6.58;5.83;;;;;;;14.07;48.04;97622.98;1782921;79;20976;-66
2021/04/21 10:30:15;;;;;;;7.53;5.40;;;;;;;14.20;46.31;97613.13;1781580;79;20946;-66
2021/04/21 10:32:44;;;;;;;8.08;5.70;;;;;;;14.25;45.98;97600.80;1783115;80;20900;-65
2021/04/21 10:35:14;;;;;;;8.00;5.17;;;;;;;14.37;44.65;97598.25;1815145;79;21335;-66
2021/04/21 10:37:42;;;;;;;7.42;5.80;;;;;;;14.50;44.61;97595.11;1782937;80;20906;-65
2021/04/21 10:40:12;;;;;;;9.18;4.65;;;;;;;14.58;43.25;97595.06;1815165;79;21146;-66
2021/04/21 10:42:54;;;;;;;9.63;4.97;;;;;;;14.66;43.14;97595.58;1782901;80;20964;-65
2021/04/21 10:45:27;;;;;;;6.85;5.50;;;;;;;14.78;44.16;97594.33;1815213;79;20911;-65
2021/04/21 10:47:57;;;;;;;9.53;4.90;;;;;;;14.98;42.96;97595.45;1783114;80;21155;-64
2021/04/21 10:50:45;;;;;;;5.72;4.15;;;;;;;15.14;43.14;97583.53;1814992;79;21026;-65
2021/04/21 10:53:24;;;;;;;6.72;4.80;;;;;;;15.26;39.33;97586.30;1782801;79;20944;-66
2021/04/21 10:55:52;;;;;;;5.58;4.47;;;;;;;15.35;41.16;97583.77;1815100;79;21030;-66
2021/04/21 10:58:20;;;;;;;7.47;4.37;;;;;;;15.54;40.65;97592.20;1783043;80;21011;-64
2021/04/21 11:00:51;;;;;;;5.42;4.80;;;;;;;15.67;39.14;97590.32;1781811;79;21392;-66
2021/04/21 11:03:30;;;;;;;12.80;5.00;;;;;;;15.61;39.53;97580.31;1782988;80;21027;-65
2021/04/21 11:06:02;;;;;;;6.00;5.33;;;;;;;15.61;40.59;97589.76;1781736;80;21605;-66
2021/04/21 11:08:31;;;;;;;8.73;5.42;;;;;;;15.67;39.32;97583.57;1782280;80;21093;-66
2021/04/21 11:11:02;;;;;;;6.78;4.97;;;;;;;15.67;40.54;97574.12;1815128;79;21406;-66
2021/04/21 11:13:41;;;;;;;6.55;4.80;;;;;;;15.73;38.42;97575.51;1782902;80;21091;-65
2021/04/21 11:16:35;;;;;;;5.80;4.67;;;;;;;15.56;38.93;97570.27;1812111;79;20959;-64
2021/04/21 11:19:24;;;;;;;6.05;4.90;;;;;;;15.33;39.80;97569.02;1772075;81;21505;-65
2021/04/21 11:22:19;;;;;;;9.75;5.78;;;;;;;15.13;40.45;97572.50;1803655;79;20979;-66
2021/04/21 11:25:26;;;;;;;6.67;5.15;;;;;;;14.94;40.35;97577.80;1772050;81;21043;-63
2021/04/21 11:27:55;;;;;;;7.65;4.80;;;;;;;14.64;41.11;97570.86;1803425;79;21572;-65
2021/04/21 11:30:42;;;;;;;6.70;4.50;;;;;;;14.59;42.06;97561.62;1771393;81;20961;-63
2021/04/21 11:33:29;;;;;;;8.70;5.72;;;;;;;14.80;41.73;97557.59;1803815;79;20948;-63
2021/04/21 11:36:34;;;;;;;7.33;5.50;;;;;;;15.12;41.33;97556.11;1765675;81;21020;-66
2021/04/21 11:39:04;;;;;;;6.50;5.00;;;;;;;15.39;40.80;97554.20;1803129;79;20884;-66
2021/04/21 11:41:47;;;;;;;6.42;5.05;;;;;;;15.61;40.03;97543.86;1771322;81;21193;-65
2021/04/21 11:44:54;;;;;;;5.50;4.33;;;;;;;15.80;40.08;97543.34;1803200;79;20931;-65
2021/04/21 11:47:45;;;;;;;7.03;4.97;;;;;;;16.05;39.31;97546.31;1771446;81;21086;-64
2021/04/21 11:50:33;;;;;;;6.70;4.53;;;;;;;16.12;36.87;97555.20;1803125;79;21077;-66
2021/04/21 11:53:14;;;;;;;10.28;5.45;;;;;;;16.04;36.84;97552.83;1771495;81;20972;-66
2021/04/21 11:55:59;;;;;;;5.50;4.53;;;;;;;16.17;38.06;97550.38;1803442;79;21455;-70
2021/04/21 11:58:41;;;;;;;7.65;4.12;;;;;;;16.39;37.86;97550.51;1771777;81;21016;-65
2021/04/21 12:01:12;;;;;;;7.80;4.08;;;;;;;16.52;37.84;97543.20;1803517;79;20999;-65
2021/04/21 12:03:45;;;;;;;6.55;4.87;;;;;;;16.49;37.28;97551.97;1756416;81;21566;-64
2021/04/21 12:06:18;;;;;;;8.33;4.40;;;;;;;16.58;37.80;97548.61;1745049;82;20892;-65
2021/04/21 12:08:50;;;;;;;6.60;4.25;;;;;;;16.76;36.95;97541.27;1745261;82;22101;-69
2021/04/21 12:11:34;;;;;;;6.30;3.70;;;;;;;16.85;35.10;97531.66;1769698;81;20999;-68
2021/04/21 12:13:59;;;;;;;6.62;4.30;;;;;;;16.47;36.17;97539.33;1744930;82;20975;-65
2021/04/21 12:16:28;;;;;;;7.95;4.15;;;;;;;16.07;37.00;97545.41;1769583;81;20967;-64
2021/04/21 12:18:59;;;;;;;5.35;3.85;;;;;;;16.09;38.03;97543.16;1745051;82;21038;-65
2021/04/21 12:21:32;;;;;;;5.08;3.80;;;;;;;16.44;38.69;97538.89;1762853;81;22109;-64
2021/04/21 12:24:05;;;;;;;6.25;3.83;;;;;;;16.98;36.75;97538.05;1740784;81;22248;-65
2021/04/21 12:26:45;;;;;;;4.20;3.65;;;;;;;17.45;36.78;97534.16;1747555;82;20908;-67
2021/04/21 12:29:18;;;;;;;4.12;3.60;;;;;;;17.90;34.56;97535.78;1747363;82;21099;-65
2021/04/21 12:31:46;;;;;;;5.10;3.70;;;;;;;17.84;34.25;97529.03;1747479;82;20936;-68
2021/04/21 12:34:28;;;;;;;4.60;3.33;;;;;;;17.59;33.96;97539.98;1747454;82;21369;-67
2021/04/21 12:36:55;;;;;;;4.15;3.35;;;;;;;17.28;34.93;97535.83;1747386;82;21510;-66
2021/04/21 12:39:25;;;;;;;4.92;3.67;;;;;;;16.97;34.54;97545.95;1752188;80;20945;-66
2021/04/21 12:42:00;;;;;;;5.37;3.42;;;;;;;16.56;34.03;97556.28;1747513;81;21488;-67
2021/04/21 12:44:33;;;;;;;7.87;3.70;;;;;;;16.14;35.35;97560.50;1747492;82;21152;-65
2021/04/21 12:47:06;;;;;;;10.95;4.03;;;;;;;15.81;38.63;97617.81;1746822;82;22065;-67
2021/04/21 12:49:42;;;;;;;11.70;4.83;;;;;;;15.18;43.48;97620.31;1746713;82;20941;-63
2021/04/21 12:52:15;;;;;;;9.83;5.17;;;;;;;14.29;47.82;97630.05;1747435;81;20894;-67
2021/04/21 12:54:49;;;;;;;12.40;5.25;;;;;;;13.52;50.82;97619.41;1747443;82;20961;-69
2021/04/21 12:57:21;;;;;;;;;;;;;;;12.93;53.62;97627.69;1750295;82;21025;-63
2021/04/21 12:59:55;;;;;;;5.55;4.87;;;;;;;12.39;56.97;97634.87;1747403;81;21385;-68
2021/04/21 13:02:45;;;;;;;7.72;5.20;;;;;;;11.80;58.12;97625.41;1748297;82;20961;-64
2021/04/21 13:05:17;;;;;;;6.17;4.58;;;;;;;11.45;60.55;97627.00;1747383;81;21488;-65
2021/04/21 13:07:47;;;;;;;7.40;4.72;;;;;;;11.16;62.37;97631.98;1747445;82;21539;-64
2021/04/21 13:10:16;;;;;;;7.30;5.35;;;;;;;10.91;62.75;97644.83;1747114;82;21064;-66
2021/04/21 13:12:45;;;;;;;7.47;5.42;;;;;;;10.79;64.61;97639.19;1746160;82;22278;-64
2021/04/21 13:15:17;;;;;;;10.00;6.05;;;;;;;10.70;65.46;97642.86;1746098;81;21206;-65
2021/04/21 13:17:50;;;;;;;11.40;8.03;;;;;;;10.67;66.21;97632.77;1747791;81;21577;-64
2021/04/21 13:20:21;;;;;;;7.97;6.67;;;;;;;10.66;66.96;97629.29;1756426;81;21222;-66
2021/04/21 13:22:49;;;;;;;9.98;8.00;;;;;;;10.70;68.26;97641.52;1755687;81;21047;-63
2021/04/21 13:25:19;;;;;;;7.62;6.47;;;;;;;10.86;68.26;97645.47;1756272;81;21403;-64
2021/04/21 13:27:48;;;;;;;8.55;6.75;;;;;;;11.13;68.64;97642.76;1757497;81;21032;-63
2021/04/21 13:30:19;;;;;;;7.42;5.47;;;;;;;11.49;68.63;97652.14;1757508;81;20929;-65
2021/04/21 13:32:50;;;;;;;7.35;5.30;;;;;;;11.94;67.35;97647.02;1757637;81;21609;-66
2021/04/21 13:35:21;;;;;;;7.33;5.28;;;;;;;12.52;66.62;97643.36;1757552;81;21142;-66
2021/04/21 13:37:50;;;;;;;6.60;5.15;;;;;;;13.15;65.92;97631.60;1757565;81;21540;-67
2021/04/21 13:40:23;;;;;;;5.55;4.80;;;;;;;13.77;63.41;97623.20;1757438;81;20996;-65
2021/04/21 13:42:53;;;;;;;5.75;4.47;;;;;;;14.21;60.44;97620.88;1757584;81;21528;-67
2021/04/21 13:45:24;;;;;;;9.53;4.70;;;;;;;14.49;58.30;97611.83;1757492;81;21164;-67
2021/04/21 13:47:53;;;;;;;5.42;4.30;;;;;;;14.71;56.39;97604.84;1757601;81;20918;-64
2021/04/21 13:50:23;;;;;;;7.85;5.12;;;;;;;14.93;55.52;97605.88;1757611;81;21479;-66
2021/04/21 13:52:51;;;;;;;9.48;4.30;;;;;;;15.28;54.39;97601.59;1757502;81;21032;-64
2021/04/21 13:55:20;;;;;;;10.10;5.20;;;;;;;15.56;52.88;97602.66;1757660;81;20997;-67
2021/04/21 13:57:48;;;;;;;6.67;4.78;;;;;;;15.82;51.93;97597.81;1757488;81;21029;-66
